createdAt,value
2022-10-18T00:01:30.364Z,96.75
2022-10-18T00:03:56.741Z,95.75
2022-10-18T00:06:23.151Z,96.19
2022-10-18T00:08:49.538Z,96.34
2022-10-18T00:11:16.161Z,96.27
2022-10-18T00:13:42.912Z,95.79
2022-10-18T00:16:14.590Z,94.80
2022-10-18T00:18:41.822Z,94.42
2022-10-18T00:21:17.959Z,93.99
2022-10-18T00:23:45.342Z,95.40
2022-10-18T00:26:14.292Z,95.06
2022-10-18T00:28:41.517Z,94.06
2022-10-18T00:31:17.043Z,94.27
2022-10-18T00:33:51.242Z,94.32
2022-10-18T00:36:18.449Z,95.92
2022-10-18T00:38:45.944Z,96.71
2022-10-18T00:41:15.768Z,96.41
2022-10-18T00:44:01.495Z,95.51
2022-10-18T00:46:32.992Z,95.23
2022-10-18T00:49:02.290Z,96.26
2022-10-18T00:51:33.782Z,96.44
2022-10-18T00:54:00.472Z,96.39
2022-10-18T00:56:27.004Z,97.16
2022-10-18T00:58:54.075Z,96.24
2022-10-18T01:01:24.422Z,95.64
2022-10-18T01:03:54.784Z,95.13
2022-10-18T01:06:21.475Z,95.04
2022-10-18T01:09:00.031Z,94.97
2022-10-18T01:11:51.207Z,94.99
2022-10-18T01:14:33.609Z,95.65
2022-10-18T01:17:08.705Z,95.98
2022-10-18T01:20:14.162Z,95.80
2022-10-18T01:22:47.952Z,96.40
2022-10-18T01:25:36.088Z,95.62
2022-10-18T01:28:33.924Z,95.68
2022-10-18T01:31:04.932Z,94.88
2022-10-18T01:33:46.122Z,95.38
2022-10-18T01:36:23.195Z,95.38
2022-10-18T01:38:53.755Z,95.42
2022-10-18T01:41:23.794Z,95.26
2022-10-18T01:43:56.071Z,94.88
2022-10-18T01:46:24.606Z,94.99
2022-10-18T01:48:52.992Z,94.41
2022-10-18T01:51:31.803Z,93.47
2022-10-18T01:53:58.608Z,93.62
2022-10-18T01:56:43.515Z,93.90
2022-10-18T01:59:44.294Z,94.18
2022-10-18T02:02:26.862Z,94.92
2022-10-18T02:05:14.667Z,95.64
2022-10-18T02:08:05.604Z,95.96
2022-10-18T02:10:48.051Z,96.23
2022-10-18T02:13:20.868Z,95.35
2022-10-18T02:15:50.351Z,95.44
2022-10-18T02:18:23.500Z,94.60
2022-10-18T02:20:51.737Z,95.28
2022-10-18T02:23:22.975Z,96.22
2022-10-18T02:25:50.181Z,96.39
2022-10-18T02:28:16.754Z,96.85
2022-10-18T02:30:52.306Z,96.73
2022-10-18T02:33:34.128Z,96.25
2022-10-18T02:36:06.959Z,97.54
2022-10-18T02:38:36.092Z,98.54
2022-10-18T02:41:02.593Z,98.79
2022-10-18T02:43:28.986Z,98.20
2022-10-18T02:45:55.594Z,98.45
2022-10-18T02:48:22.019Z,98.33
2022-10-18T02:50:48.430Z,97.43
2022-10-18T02:53:14.826Z,97.35
2022-10-18T02:55:41.255Z,98.26
2022-10-18T02:58:07.896Z,98.69
2022-10-18T03:00:34.274Z,98.79
2022-10-18T03:03:00.666Z,99.77
2022-10-18T03:05:27.104Z,99.08
2022-10-18T03:07:53.507Z,99.61
2022-10-18T03:10:19.895Z,98.36
2022-10-18T03:12:46.296Z,99.34
2022-10-18T03:15:12.684Z,99.46
2022-10-18T03:17:39.080Z,99.39
2022-10-18T03:20:06.027Z,99.60
2022-10-18T03:22:32.732Z,98.14
2022-10-18T03:24:59.119Z,99.21
2022-10-18T03:27:25.566Z,100.00
2022-10-18T03:29:51.954Z,99.47
2022-10-18T03:32:19.453Z,98.80
2022-10-18T03:34:45.848Z,99.01
2022-10-18T03:37:12.260Z,98.86
2022-10-18T03:39:38.657Z,98.75
2022-10-18T03:42:05.067Z,99.16
2022-10-18T03:44:31.523Z,98.07
2022-10-18T03:46:57.914Z,98.70
2022-10-18T03:49:24.394Z,99.46
2022-10-18T03:51:50.793Z,99.32
2022-10-18T03:54:29.395Z,97.22
2022-10-18T03:56:55.794Z,97.89
2022-10-18T03:59:22.922Z,98.99
2022-10-18T04:01:49.592Z,98.24
2022-10-18T04:04:16.091Z,98.25
2022-10-18T04:06:42.459Z,98.03
2022-10-18T04:09:10.215Z,97.60
2022-10-18T04:11:36.834Z,98.31
2022-10-18T04:14:03.388Z,98.03
2022-10-18T04:16:29.821Z,98.29
2022-10-18T04:18:57.640Z,98.23
2022-10-18T04:21:24.079Z,98.48
2022-10-18T04:23:50.919Z,98.21
2022-10-18T04:26:19.734Z,98.29
2022-10-18T04:28:47.169Z,99.13
2022-10-18T04:31:13.742Z,98.34
2022-10-18T04:33:40.194Z,98.28
2022-10-18T04:36:06.819Z,97.39
2022-10-18T04:38:33.366Z,98.16
2022-10-18T04:40:59.907Z,98.58
2022-10-18T04:43:27.159Z,98.20
2022-10-18T04:45:53.573Z,98.06
2022-10-18T04:48:20.222Z,98.43
2022-10-18T04:50:50.752Z,97.56
2022-10-18T04:53:18.351Z,98.29
2022-10-18T04:55:49.396Z,97.81
2022-10-18T04:58:16.621Z,97.59
2022-10-18T05:00:43.554Z,97.32
2022-10-18T05:03:12.345Z,98.82
2022-10-18T05:06:00.082Z,98.41
2022-10-18T05:08:25.313Z,97.95
2022-10-18T05:11:05.161Z,98.19
2022-10-18T05:13:31.768Z,97.74
2022-10-18T05:16:00.137Z,98.70
2022-10-18T05:18:26.820Z,98.81
2022-10-18T05:20:53.244Z,98.52
2022-10-18T05:23:19.707Z,97.73
2022-10-18T05:25:46.168Z,98.42
2022-10-18T05:28:34.118Z,98.87
2022-10-18T05:31:02.981Z,97.79
2022-10-18T05:33:29.766Z,97.50
2022-10-18T05:35:56.303Z,97.47
2022-10-18T05:38:23.003Z,97.14
2022-10-18T05:40:49.487Z,97.20
2022-10-18T05:43:17.711Z,96.10
2022-10-18T05:45:50.993Z,96.55
2022-10-18T05:48:17.944Z,97.09
2022-10-18T05:50:44.518Z,97.40
2022-10-18T05:53:31.553Z,97.91
2022-10-18T05:56:01.646Z,98.78
2022-10-18T05:58:28.188Z,96.74
2022-10-18T06:00:54.640Z,98.16
2022-10-18T06:03:21.030Z,98.49
2022-10-18T06:05:47.500Z,97.51
2022-10-18T06:08:14.110Z,98.42
2022-10-18T06:10:40.589Z,98.05
2022-10-18T06:13:07.002Z,98.22
2022-10-18T06:15:33.467Z,97.75
2022-10-18T06:17:59.886Z,97.74
2022-10-18T06:20:26.325Z,98.00
2022-10-18T06:22:53.548Z,97.29
2022-10-18T06:25:19.948Z,98.07
2022-10-18T06:27:46.366Z,98.38
2022-10-18T06:30:12.745Z,98.57
2022-10-18T06:32:40.192Z,98.70
2022-10-18T06:35:07.028Z,99.04
2022-10-18T06:37:35.497Z,96.34
2022-10-18T06:40:02.241Z,97.27
2022-10-18T06:42:28.830Z,96.55
2022-10-18T06:44:55.219Z,97.48
2022-10-18T06:47:21.667Z,97.86
2022-10-18T06:49:48.080Z,97.43
2022-10-18T06:52:17.443Z,97.66
2022-10-18T06:54:45.377Z,97.53
2022-10-18T06:57:11.924Z,96.53
2022-10-18T06:59:38.522Z,96.53
2022-10-18T07:02:05.037Z,96.18
2022-10-18T07:04:31.502Z,95.74
2022-10-18T07:06:57.958Z,95.10
2022-10-18T07:09:24.402Z,95.08
2022-10-18T07:11:52.731Z,93.23
2022-10-18T07:14:19.120Z,93.80
2022-10-18T07:16:45.578Z,94.09
2022-10-18T07:19:12.220Z,94.58
2022-10-18T07:21:38.611Z,93.21
2022-10-18T07:24:06.549Z,91.93
2022-10-18T07:26:34.695Z,92.00
2022-10-18T07:29:06.734Z,92.50
2022-10-18T07:31:33.699Z,93.50
2022-10-18T07:34:00.612Z,92.98
2022-10-18T07:36:27.058Z,93.24
2022-10-18T07:38:53.763Z,92.33
2022-10-18T07:41:21.056Z,92.22
2022-10-18T07:43:50.930Z,92.62
2022-10-18T07:46:18.682Z,92.59
2022-10-18T07:48:45.188Z,91.16
2022-10-18T07:51:11.975Z,91.16
2022-10-18T07:53:38.759Z,91.12
2022-10-18T07:56:15.756Z,90.86
2022-10-18T07:58:47.396Z,90.53
2022-10-18T08:01:15.307Z,91.03
2022-10-18T08:03:42.657Z,91.43
2022-10-18T08:06:10.980Z,91.31
2022-10-18T08:08:38.856Z,91.23
2022-10-18T08:11:17.412Z,91.00
2022-10-18T08:13:44.226Z,89.49
2022-10-18T08:16:16.891Z,89.03
2022-10-18T08:18:43.803Z,88.78
2022-10-18T08:21:12.404Z,89.00
2022-10-18T08:23:39.357Z,89.50
2022-10-18T08:26:09.466Z,88.39
2022-10-18T08:28:39.336Z,88.79
2022-10-18T08:31:08.411Z,88.90
2022-10-18T08:33:36.169Z,88.77
2022-10-18T08:36:07.499Z,87.61
2022-10-18T08:38:38.783Z,88.01
2022-10-18T08:41:14.186Z,88.37
2022-10-18T08:43:50.108Z,88.27
2022-10-18T08:46:16.575Z,88.63
2022-10-18T08:48:48.650Z,88.20
2022-10-18T08:51:28.467Z,87.87
2022-10-18T08:54:15.130Z,86.89
2022-10-18T08:56:45.597Z,87.32
2022-10-18T08:59:13.542Z,87.00
2022-10-18T09:02:02.474Z,85.31
2022-10-18T09:04:55.731Z,86.58
2022-10-18T09:07:44.097Z,87.51
2022-10-18T09:10:41.754Z,87.01
2022-10-18T09:13:30.728Z,87.69
2022-10-18T09:15:59.707Z,87.45
2022-10-18T09:18:44.343Z,87.17
2022-10-18T09:21:16.820Z,87.36
2022-10-18T09:23:48.276Z,87.33
2022-10-18T09:26:21.076Z,84.12
2022-10-18T09:29:02.759Z,83.47
2022-10-18T09:32:04.833Z,83.07
2022-10-18T09:34:59.776Z,83.33
2022-10-18T09:37:30.547Z,82.25
2022-10-18T09:40:06.580Z,81.08
2022-10-18T09:42:38.058Z,80.36
2022-10-18T09:45:23.714Z,77.36
2022-10-18T09:47:59.425Z,78.10
2022-10-18T09:50:37.866Z,77.25
2022-10-18T09:53:04.198Z,78.29
2022-10-18T09:55:36.266Z,77.62
2022-10-18T09:58:07.166Z,76.61
2022-10-18T10:00:43.520Z,75.36
2022-10-18T10:03:14.774Z,74.95
2022-10-18T10:05:42.464Z,74.74
2022-10-18T10:08:09.175Z,71.57
2022-10-18T10:10:39.157Z,71.46
2022-10-18T10:13:26.087Z,68.97
2022-10-18T10:15:56.911Z,67.94
2022-10-18T10:18:31.100Z,66.64
2022-10-18T10:21:14.769Z,67.19
2022-10-18T10:23:57.724Z,67.40
2022-10-18T10:26:28.081Z,66.18
2022-10-18T10:28:55.059Z,67.12
2022-10-18T10:31:24.421Z,65.06
2022-10-18T10:34:19.150Z,67.33
2022-10-18T10:36:51.036Z,64.62
2022-10-18T10:39:19.590Z,66.06
2022-10-18T10:41:54.648Z,66.45
2022-10-18T10:44:27.978Z,63.96
2022-10-18T10:46:55.098Z,64.83
2022-10-18T10:49:41.059Z,65.41
2022-10-18T10:52:27.303Z,64.30
2022-10-18T10:57:52.061Z,63.87
2022-10-18T11:00:33.628Z,64.30
2022-10-18T11:03:30.003Z,62.99
2022-10-18T11:05:58.711Z,64.26
2022-10-18T11:08:41.476Z,61.43
2022-10-18T11:11:23.297Z,61.96
2022-10-18T11:14:13.283Z,62.28
2022-10-18T11:16:56.990Z,62.32
2022-10-18T11:19:57.100Z,62.18
2022-10-18T11:22:27.699Z,62.70
2022-10-18T11:24:54.176Z,62.53
2022-10-18T11:27:28.283Z,59.14
2022-10-18T11:30:13.580Z,60.83
2022-10-18T11:32:54.340Z,59.72
2022-10-18T11:35:33.986Z,60.78
2022-10-18T11:38:29.234Z,59.94
2022-10-18T11:41:07.250Z,59.38
2022-10-18T11:44:02.209Z,60.21
2022-10-18T11:46:45.124Z,59.35
2022-10-18T11:49:33.110Z,60.25
2022-10-18T11:52:10.651Z,58.70
2022-10-18T11:55:02.099Z,57.67
2022-10-18T11:57:37.532Z,58.04
2022-10-18T12:00:03.998Z,59.14
2022-10-18T12:03:08.250Z,56.93
2022-10-18T12:05:38.077Z,56.82
2022-10-18T12:08:13.231Z,56.90
2022-10-18T12:10:59.980Z,57.13
2022-10-18T12:13:44.311Z,56.39
2022-10-18T12:16:12.457Z,57.24
2022-10-18T12:18:59.137Z,58.32
2022-10-18T12:21:30.095Z,58.98
2022-10-18T12:24:02.866Z,58.54
2022-10-18T12:26:30.097Z,57.26
2022-10-18T12:29:16.775Z,56.94
2022-10-18T12:31:51.275Z,58.73
2022-10-18T12:34:43.734Z,59.35
2022-10-18T12:37:55.275Z,57.89
2022-10-18T12:40:45.313Z,56.34
2022-10-18T12:43:27.467Z,58.04
2022-10-18T12:45:56.949Z,56.96
2022-10-18T12:48:29.444Z,57.02
2022-10-18T12:51:04.674Z,57.09
2022-10-18T12:53:32.063Z,58.39
2022-10-18T12:56:29.715Z,57.72
2022-10-18T12:59:14.649Z,58.91
2022-10-18T13:01:53.287Z,58.00
2022-10-18T13:04:29.083Z,58.60
2022-10-18T13:06:59.244Z,57.43
2022-10-18T13:09:28.043Z,57.92
2022-10-18T13:12:18.682Z,55.28
2022-10-18T13:15:25.543Z,56.25
2022-10-18T13:18:01.700Z,55.73
2022-10-18T13:20:40.632Z,55.06
2022-10-18T13:23:48.609Z,55.26
2022-10-18T13:26:25.591Z,56.18
2022-10-18T13:29:05.801Z,56.55
2022-10-18T13:31:39.786Z,56.99
2022-10-18T13:34:22.868Z,57.78
2022-10-18T13:37:24.524Z,57.16
2022-10-18T13:40:15.060Z,59.07
2022-10-18T13:42:41.483Z,59.78
2022-10-18T13:45:33.055Z,60.46
2022-10-18T13:48:28.410Z,60.01
2022-10-18T13:51:03.400Z,60.85
2022-10-18T13:53:40.305Z,61.19
2022-10-18T13:56:32.710Z,61.97
2022-10-18T13:59:40.632Z,62.57
2022-10-18T14:02:49.920Z,61.21
2022-10-18T14:05:25.810Z,61.61
2022-10-18T14:07:57.556Z,60.96
2022-10-18T14:10:43.696Z,61.01
2022-10-18T14:13:20.109Z,62.39
2022-10-18T14:15:51.490Z,61.41
2022-10-18T14:18:31.755Z,62.50
2022-10-18T14:21:22.079Z,60.52
2022-10-18T14:23:50.489Z,60.90
2022-10-18T14:26:22.845Z,61.13
2022-10-18T14:29:06.747Z,61.25
2022-10-18T14:31:34.612Z,61.85
2022-10-18T14:34:01.184Z,61.69
2022-10-18T14:36:40.736Z,61.79
2022-10-18T14:39:16.816Z,61.26
2022-10-18T14:42:19.566Z,62.54
2022-10-18T14:44:51.770Z,62.67
2022-10-18T14:47:25.615Z,62.70
2022-10-18T14:49:57.738Z,63.06
2022-10-18T14:52:35.841Z,63.71
2022-10-18T14:55:02.714Z,63.84
2022-10-18T14:57:35.269Z,64.39
2022-10-18T15:00:07.391Z,64.07
2022-10-18T15:02:37.332Z,63.57
2022-10-18T15:05:18.515Z,63.97
2022-10-18T15:07:45.582Z,62.96
2022-10-18T15:10:18.960Z,63.02
2022-10-18T15:13:08.181Z,62.42
2022-10-18T15:15:34.482Z,62.87
2022-10-18T15:18:01.774Z,62.49
2022-10-18T15:20:34.369Z,62.81
2022-10-18T15:23:23.326Z,61.98
2022-10-18T15:25:59.671Z,61.72
2022-10-18T15:28:53.817Z,63.35
2022-10-18T15:31:23.365Z,63.53
2022-10-18T15:33:49.927Z,63.45
2022-10-18T15:36:31.890Z,63.42
2022-10-18T15:39:08.721Z,62.92
2022-10-18T15:41:53.690Z,62.51
2022-10-18T15:44:32.303Z,63.51
2022-10-18T15:47:16.006Z,63.46
2022-10-18T15:49:45.458Z,64.01
2022-10-18T15:52:35.180Z,63.77
2022-10-18T15:55:22.884Z,64.20
2022-10-18T15:57:49.477Z,64.26
2022-10-18T16:00:19.851Z,65.03
2022-10-18T16:03:01.587Z,65.98
2022-10-18T16:05:28.147Z,65.53
2022-10-18T16:07:54.794Z,66.53
2022-10-18T16:10:21.248Z,67.80
2022-10-18T16:12:47.733Z,70.99
2022-10-18T16:15:14.183Z,71.76
2022-10-18T16:17:40.592Z,72.70
2022-10-18T16:20:18.577Z,74.06
2022-10-18T16:22:45.072Z,73.67
2022-10-18T16:25:11.489Z,74.59
2022-10-18T16:27:37.852Z,75.12
2022-10-18T16:30:18.384Z,75.62
2022-10-18T16:32:46.177Z,76.48
2022-10-18T16:35:13.384Z,76.50
2022-10-18T16:37:39.943Z,77.04
2022-10-18T16:40:21.256Z,76.91
2022-10-18T16:42:47.848Z,77.49
2022-10-18T16:45:14.336Z,77.67
2022-10-18T16:47:40.734Z,77.92
2022-10-18T16:50:08.665Z,77.83
2022-10-18T16:52:35.239Z,78.46
2022-10-18T16:55:01.824Z,78.59
2022-10-18T16:57:28.225Z,78.12
2022-10-18T16:59:54.646Z,79.02
2022-10-18T17:02:21.028Z,79.67
2022-10-18T17:04:57.671Z,79.64
2022-10-18T17:07:25.219Z,80.74
2022-10-18T17:09:51.638Z,80.72
2022-10-18T17:12:19.039Z,80.45
2022-10-18T17:14:45.434Z,80.62
2022-10-18T17:17:12.405Z,81.43
2022-10-18T17:19:46.975Z,81.87
2022-10-18T17:22:13.473Z,81.34
2022-10-18T17:24:39.944Z,81.20
2022-10-18T17:27:06.456Z,81.33
2022-10-18T17:29:32.927Z,82.02
2022-10-18T17:31:59.304Z,81.88
2022-10-18T17:34:25.726Z,81.66
2022-10-18T17:36:52.285Z,81.29
2022-10-18T17:39:18.730Z,82.89
2022-10-18T17:41:45.138Z,82.71
2022-10-18T17:44:11.608Z,83.48
2022-10-18T17:46:37.993Z,83.35
2022-10-18T17:49:04.402Z,83.96
2022-10-18T17:51:30.933Z,83.27
2022-10-18T17:53:57.332Z,84.66
2022-10-18T17:56:23.770Z,84.84
2022-10-18T17:58:51.469Z,84.75
2022-10-18T18:01:20.441Z,86.76
2022-10-18T18:03:49.995Z,86.92
2022-10-18T18:06:17.640Z,85.47
2022-10-18T18:08:51.151Z,86.29
2022-10-18T18:11:17.974Z,87.68
2022-10-18T18:13:45.642Z,87.40
2022-10-18T18:16:15.131Z,88.16
2022-10-18T18:18:42.438Z,89.22
2022-10-18T18:21:08.954Z,88.01
2022-10-18T18:23:35.344Z,87.92
2022-10-18T18:26:01.831Z,88.58
2022-10-18T18:28:28.297Z,88.62
2022-10-18T18:30:58.874Z,87.44
2022-10-18T18:33:25.268Z,86.59
2022-10-18T18:35:56.452Z,88.28
2022-10-18T18:38:23.479Z,88.24
2022-10-18T18:40:49.899Z,86.33
2022-10-18T18:43:23.097Z,87.25
2022-10-18T18:45:51.370Z,89.10
2022-10-18T18:48:19.853Z,89.02
2022-10-18T18:50:51.181Z,88.52
2022-10-18T18:53:18.305Z,88.80
2022-10-18T18:55:44.806Z,89.59
2022-10-18T18:58:11.781Z,89.64
2022-10-18T19:00:43.365Z,90.11
2022-10-18T19:03:11.470Z,91.20
2022-10-18T19:05:38.311Z,89.12
2022-10-18T19:08:05.816Z,89.75
2022-10-18T19:10:33.314Z,90.29
2022-10-18T19:12:59.863Z,90.73
2022-10-18T19:15:26.389Z,90.94
2022-10-18T19:17:52.809Z,90.51
2022-10-18T19:20:19.367Z,89.49
2022-10-18T19:22:49.781Z,89.25
2022-10-18T19:25:16.356Z,89.28
2022-10-18T19:27:42.778Z,90.56
2022-10-18T19:30:11.479Z,91.81
2022-10-18T19:32:37.875Z,91.52
2022-10-18T19:35:04.573Z,91.25
2022-10-18T19:37:31.322Z,90.16
2022-10-18T19:39:58.632Z,92.34
2022-10-18T19:42:28.948Z,92.12
2022-10-18T19:44:57.569Z,91.03
2022-10-18T19:47:24.004Z,92.21
2022-10-18T19:49:51.791Z,92.30
2022-10-18T19:52:18.264Z,92.84
2022-10-18T19:54:45.078Z,92.13
2022-10-18T19:57:11.667Z,92.25
2022-10-18T19:59:38.482Z,91.60
2022-10-18T20:02:05.016Z,89.87
2022-10-18T20:04:34.507Z,90.16
2022-10-18T20:07:02.680Z,89.94
2022-10-18T20:09:29.629Z,90.85
2022-10-18T20:11:56.235Z,91.81
2022-10-18T20:14:22.809Z,91.93
2022-10-18T20:16:49.292Z,91.83
2022-10-18T20:19:15.714Z,93.28
2022-10-18T20:21:42.190Z,93.06
2022-10-18T20:24:09.471Z,91.38
2022-10-18T20:26:36.073Z,92.17
2022-10-18T20:29:03.459Z,92.52
2022-10-18T20:31:33.814Z,91.92
2022-10-18T20:34:02.580Z,92.00
2022-10-18T20:36:31.086Z,93.10
2022-10-18T20:38:57.675Z,92.99
2022-10-18T20:41:30.151Z,93.23
2022-10-18T20:44:02.311Z,91.33
2022-10-18T20:46:34.241Z,91.08
2022-10-18T20:49:01.167Z,92.03
2022-10-18T20:51:28.005Z,92.57
2022-10-18T20:53:54.722Z,92.87
2022-10-18T20:56:24.044Z,92.72
2022-10-18T20:58:53.332Z,92.87
2022-10-18T21:01:22.412Z,92.82
2022-10-18T21:03:50.770Z,92.79
2022-10-18T21:06:25.918Z,91.35
2022-10-18T21:08:57.601Z,90.52
2022-10-18T21:11:25.976Z,90.50
2022-10-18T21:14:02.687Z,89.70
2022-10-18T21:16:30.805Z,90.32
2022-10-18T21:19:02.096Z,91.03
2022-10-18T21:21:28.486Z,90.52
2022-10-18T21:23:54.893Z,89.91
2022-10-18T21:26:24.446Z,90.76
2022-10-18T21:28:52.764Z,92.21
2022-10-18T21:31:21.963Z,93.18
2022-10-18T21:33:56.879Z,93.75
2022-10-18T21:36:24.162Z,94.63
2022-10-18T21:38:51.607Z,95.54
2022-10-18T21:41:20.199Z,95.20
2022-10-18T21:43:48.660Z,95.66
2022-10-18T21:46:16.292Z,95.63
2022-10-18T21:48:44.719Z,95.15
2022-10-18T21:51:12.125Z,96.06
2022-10-18T21:53:38.586Z,96.88
2022-10-18T21:56:13.271Z,96.15
2022-10-18T21:58:40.683Z,95.87
2022-10-18T22:01:12.655Z,96.50
2022-10-18T22:03:39.095Z,96.16
2022-10-18T22:06:12.997Z,96.49
2022-10-18T22:08:40.919Z,94.82
2022-10-18T22:11:07.608Z,94.98
2022-10-18T22:13:34.094Z,94.56
2022-10-18T22:16:02.402Z,95.25
2022-10-18T22:18:29.269Z,94.02
2022-10-18T22:20:58.631Z,93.86
2022-10-18T22:23:25.288Z,93.84
2022-10-18T22:25:51.744Z,94.36
2022-10-18T22:28:20.191Z,92.92
2022-10-18T22:30:46.581Z,91.85
2022-10-18T22:33:13.032Z,92.91
2022-10-18T22:35:39.422Z,92.58
2022-10-18T22:38:05.807Z,92.23
2022-10-18T22:40:32.291Z,92.49
2022-10-18T22:42:58.706Z,92.20
2022-10-18T22:45:25.143Z,94.33
2022-10-18T22:47:51.533Z,93.57
2022-10-18T22:50:17.951Z,92.79
2022-10-18T22:52:44.330Z,91.88
2022-10-18T22:55:10.760Z,91.70
2022-10-18T22:57:37.160Z,91.39
2022-10-18T23:00:04.194Z,92.36
2022-10-18T23:02:30.771Z,91.99
2022-10-18T23:04:57.240Z,92.41
2022-10-18T23:07:23.723Z,92.72
2022-10-18T23:09:50.206Z,92.68
2022-10-18T23:12:16.720Z,93.07
2022-10-18T23:14:44.521Z,92.78
2022-10-18T23:17:10.935Z,93.86
2022-10-18T23:19:37.324Z,94.62
2022-10-18T23:22:03.761Z,94.07
2022-10-18T23:24:30.298Z,94.28
2022-10-18T23:26:56.715Z,94.04
2022-10-18T23:29:23.141Z,94.59
2022-10-18T23:31:49.575Z,95.93
2022-10-18T23:34:16.021Z,96.01
2022-10-18T23:39:10.073Z,96.41
2022-10-18T23:41:36.463Z,96.79
2022-10-18T23:44:02.993Z,96.41
2022-10-18T23:46:29.431Z,96.89
2022-10-18T23:48:55.857Z,96.66
2022-10-18T23:51:22.255Z,96.96
2022-10-18T23:53:48.778Z,97.75
2022-10-18T23:56:16.650Z,97.58
2022-10-18T23:58:44.543Z,97.37
